KADG/ADG METAR and TAF weather

Enter ICAO airport designator
Station Type Date Time Source
KADG METAR 2019/08/25 06:53 UTC NOAA

KADG 250653Z AUTO 07005KT 10SM CLR 13/11 A3023 RMK AO2 SLP238 T01330111


Station Type Date Time Source
KADG Decoded METAR 2019/08/25 06:53 UTC NOAA

Station name not available
Aug 25, 2019 - 02:53 AM EDT / 2019.08.25 0653 UTC
Wind: from the ENE (070 degrees) at 6 MPH (5 KT):0
Visibility: 10 mile(s):0
Sky conditions: clear
Temperature: 55.9 F (13.3 C)
Dew Point: 52.0 F (11.1 C)
Relative Humidity: 86%
Pressure (altimeter): 30.23 in. Hg (1023 hPa)
ob: KADG 250653Z AUTO 07005KT 10SM CLR 13/11 A3023 RMK AO2 SLP238 T01330111
cycle: 7

Station Type Date Time Source
KADG TAF UTC NOAA

Error!

Example: see airport list